createdAt,value
2017-12-19T00:01:21.427Z,4.00
2017-12-19T00:03:49.833Z,3.90
2017-12-19T00:06:18.106Z,4.00
2017-12-19T00:08:46.486Z,4.20
2017-12-19T00:11:14.744Z,4.20
2017-12-19T00:13:43.042Z,4.00
2017-12-19T00:16:11.312Z,3.90
2017-12-19T00:18:39.582Z,3.90
2017-12-19T00:21:07.968Z,3.90
2017-12-19T00:23:36.232Z,3.90
2017-12-19T00:26:04.489Z,4.10
2017-12-19T00:28:32.796Z,3.80
2017-12-19T00:31:01.056Z,3.70
2017-12-19T00:33:29.852Z,3.70
2017-12-19T00:35:58.849Z,3.70
2017-12-19T00:38:27.145Z,3.80
2017-12-19T00:40:55.624Z,3.80
2017-12-19T00:43:23.895Z,3.80
2017-12-19T00:45:52.172Z,3.80
2017-12-19T00:48:20.441Z,3.60
2017-12-19T00:50:48.713Z,3.50
2017-12-19T00:53:16.994Z,3.60
2017-12-19T00:55:45.265Z,3.90
2017-12-19T00:58:13.544Z,4.00
2017-12-19T01:00:41.808Z,3.90
2017-12-19T01:03:10.119Z,4.10
2017-12-19T01:05:38.514Z,4.00
2017-12-19T01:08:06.807Z,4.00
2017-12-19T01:10:35.100Z,4.00
2017-12-19T01:13:03.400Z,4.10
2017-12-19T01:15:31.672Z,4.10
2017-12-19T01:17:59.981Z,4.30
2017-12-19T01:20:28.254Z,4.40
2017-12-19T01:22:56.562Z,4.40
2017-12-19T01:25:24.822Z,4.50
2017-12-19T01:27:53.098Z,4.50
2017-12-19T01:30:21.381Z,4.40
2017-12-19T01:32:51.175Z,4.20
2017-12-19T01:35:19.552Z,4.20
2017-12-19T01:37:47.831Z,4.10
2017-12-19T01:40:16.108Z,4.00
2017-12-19T01:42:44.386Z,4.00
2017-12-19T01:45:12.636Z,4.00
2017-12-19T01:47:40.920Z,4.10
2017-12-19T01:50:09.176Z,4.00
2017-12-19T01:52:37.428Z,4.00
2017-12-19T01:55:06.509Z,4.20
2017-12-19T01:57:34.756Z,4.20
2017-12-19T02:00:03.035Z,4.20
2017-12-19T02:02:31.325Z,4.30
2017-12-19T02:04:59.580Z,4.20
2017-12-19T02:07:27.873Z,4.40
2017-12-19T02:09:56.142Z,4.50
2017-12-19T02:12:24.425Z,4.50
2017-12-19T02:14:52.697Z,4.50
2017-12-19T02:17:20.948Z,4.50
2017-12-19T02:19:49.228Z,4.50
2017-12-19T02:22:17.492Z,4.40
2017-12-19T02:24:46.538Z,4.40
2017-12-19T02:27:14.800Z,4.30
2017-12-19T02:29:43.060Z,4.20
2017-12-19T02:32:11.346Z,4.20
2017-12-19T02:34:39.634Z,4.30
2017-12-19T02:37:08.027Z,4.40
2017-12-19T02:39:36.403Z,4.30
2017-12-19T02:42:04.648Z,4.50
2017-12-19T02:44:32.954Z,4.60
2017-12-19T02:47:01.334Z,4.40
2017-12-19T02:49:29.834Z,4.50
2017-12-19T02:51:58.197Z,4.60
2017-12-19T02:54:26.612Z,4.70
2017-12-19T02:56:55.643Z,4.40
2017-12-19T02:59:24.678Z,4.70
2017-12-19T03:01:52.952Z,4.70
2017-12-19T03:04:21.244Z,4.70
2017-12-19T03:06:50.420Z,4.90
2017-12-19T03:09:18.669Z,4.90
2017-12-19T03:11:46.933Z,4.90
2017-12-19T03:14:15.255Z,4.80
2017-12-19T03:16:44.448Z,4.80
2017-12-19T03:19:12.716Z,4.70
2017-12-19T03:21:41.105Z,4.60
2017-12-19T03:24:09.359Z,4.50
2017-12-19T03:26:37.627Z,4.70
2017-12-19T03:29:05.901Z,4.60
2017-12-19T03:31:34.176Z,4.80
2017-12-19T03:34:02.436Z,4.60
2017-12-19T03:36:31.477Z,4.60
2017-12-19T03:38:59.764Z,4.50
2017-12-19T03:41:28.022Z,4.70
2017-12-19T03:43:56.300Z,4.70
2017-12-19T03:46:24.568Z,4.70
2017-12-19T03:48:52.852Z,4.60
2017-12-19T03:51:21.141Z,4.90
2017-12-19T03:53:49.441Z,4.90
2017-12-19T03:56:19.210Z,5.00
2017-12-19T03:58:47.473Z,5.00
2017-12-19T04:01:15.741Z,4.80
2017-12-19T04:03:44.067Z,4.70
2017-12-19T04:06:12.742Z,4.80
2017-12-19T04:08:41.131Z,4.60
2017-12-19T04:11:09.468Z,4.50
2017-12-19T04:13:37.760Z,4.60
2017-12-19T04:16:06.019Z,4.50
2017-12-19T04:18:34.308Z,4.50
2017-12-19T04:21:02.563Z,4.40
2017-12-19T04:23:31.603Z,4.30
2017-12-19T04:25:59.892Z,4.30
2017-12-19T04:28:28.152Z,4.40
2017-12-19T04:30:56.423Z,4.30
2017-12-19T04:33:24.735Z,4.40
2017-12-19T04:35:53.131Z,4.40
2017-12-19T04:38:22.144Z,4.60
2017-12-19T04:40:50.577Z,4.60
2017-12-19T04:43:18.826Z,4.70
2017-12-19T04:45:47.103Z,4.80
2017-12-19T04:48:15.352Z,4.90
2017-12-19T04:50:44.387Z,4.80
2017-12-19T04:53:12.678Z,4.80
2017-12-19T04:55:40.970Z,4.90
2017-12-19T04:58:09.252Z,4.90
2017-12-19T05:00:38.329Z,4.80
2017-12-19T05:03:06.828Z,4.80
2017-12-19T05:05:35.153Z,4.60
2017-12-19T05:08:03.474Z,4.40
2017-12-19T05:10:31.849Z,4.20
2017-12-19T05:13:00.329Z,3.90
2017-12-19T05:15:28.589Z,3.90
2017-12-19T05:17:56.986Z,3.80
2017-12-19T05:20:25.243Z,3.60
2017-12-19T05:22:53.556Z,3.50
2017-12-19T05:25:21.916Z,3.40
2017-12-19T05:27:50.192Z,3.30
2017-12-19T05:30:18.471Z,3.20
2017-12-19T05:32:46.745Z,3.10
2017-12-19T05:35:15.130Z,2.90
2017-12-19T05:37:43.404Z,2.80
2017-12-19T05:40:13.255Z,2.60
2017-12-19T05:42:42.321Z,2.60
2017-12-19T05:45:10.695Z,2.60
2017-12-19T05:47:38.967Z,2.60
2017-12-19T05:50:07.235Z,2.50
2017-12-19T05:52:35.507Z,2.50
2017-12-19T05:55:03.779Z,2.40
2017-12-19T05:57:33.069Z,2.50
2017-12-19T06:00:01.382Z,2.40
2017-12-19T06:02:29.673Z,2.50
2017-12-19T06:04:57.933Z,2.60
2017-12-19T06:07:26.315Z,2.70
2017-12-19T06:09:54.707Z,2.70
2017-12-19T06:12:23.046Z,2.70
2017-12-19T06:14:51.310Z,2.60
2017-12-19T06:17:19.620Z,2.60
2017-12-19T06:19:47.905Z,2.50
2017-12-19T06:22:16.659Z,2.50
2017-12-19T06:24:44.944Z,2.50
2017-12-19T06:27:13.200Z,2.50
2017-12-19T06:29:41.467Z,2.40
2017-12-19T06:32:10.521Z,2.40
2017-12-19T06:34:38.776Z,2.40
2017-12-19T06:37:07.066Z,2.40
2017-12-19T06:39:35.349Z,2.40
2017-12-19T06:42:03.621Z,2.40
2017-12-19T06:44:31.909Z,2.40
2017-12-19T06:47:00.180Z,2.40
2017-12-19T06:49:28.662Z,2.40
2017-12-19T06:51:56.941Z,2.40
2017-12-19T06:54:25.198Z,2.50
2017-12-19T06:56:53.484Z,2.50
2017-12-19T06:59:21.758Z,2.50
2017-12-19T07:01:50.057Z,2.50
2017-12-19T07:04:18.333Z,2.50
2017-12-19T07:06:46.710Z,2.50
2017-12-19T07:09:15.086Z,2.50
2017-12-19T07:11:43.368Z,2.50
2017-12-19T07:14:11.743Z,2.50
2017-12-19T07:16:40.004Z,2.50
2017-12-19T07:19:08.293Z,2.50
2017-12-19T07:21:36.570Z,2.60
2017-12-19T07:24:05.053Z,2.60
2017-12-19T07:26:33.330Z,2.50
2017-12-19T07:29:01.600Z,2.50
2017-12-19T07:31:29.882Z,2.60
2017-12-19T07:33:58.171Z,2.60
2017-12-19T07:36:27.256Z,2.70
2017-12-19T07:38:55.555Z,2.60
2017-12-19T07:41:25.319Z,2.60
2017-12-19T07:43:53.586Z,2.60
2017-12-19T07:46:21.868Z,2.60
2017-12-19T07:48:50.332Z,2.60
2017-12-19T07:51:18.621Z,2.50
2017-12-19T07:53:46.953Z,2.40
2017-12-19T07:56:15.434Z,2.40
2017-12-19T07:58:43.809Z,2.50
2017-12-19T08:01:12.075Z,2.40
2017-12-19T08:03:40.451Z,2.40
2017-12-19T08:06:08.709Z,2.40
2017-12-19T08:08:36.971Z,2.40
2017-12-19T08:11:05.408Z,2.40
2017-12-19T08:13:34.453Z,2.30
2017-12-19T08:16:02.759Z,2.30
2017-12-19T08:18:31.142Z,2.20
2017-12-19T08:20:59.415Z,2.30
2017-12-19T08:23:27.796Z,2.30
2017-12-19T08:25:56.044Z,2.30
2017-12-19T08:28:24.385Z,2.30
2017-12-19T08:30:53.441Z,2.40
2017-12-19T08:33:21.717Z,2.40
2017-12-19T08:35:50.053Z,2.50
2017-12-19T08:38:18.327Z,2.50
2017-12-19T08:40:46.629Z,2.50
2017-12-19T08:43:14.891Z,2.50
2017-12-19T08:45:43.208Z,2.60
2017-12-19T08:48:11.498Z,2.50
2017-12-19T08:50:39.768Z,2.50
2017-12-19T08:53:08.060Z,2.50
2017-12-19T08:55:36.328Z,2.60
2017-12-19T08:58:04.597Z,2.50
2017-12-19T09:00:32.885Z,2.50
2017-12-19T09:03:01.263Z,2.50
2017-12-19T09:05:30.643Z,2.60
2017-12-19T09:07:58.904Z,2.60
2017-12-19T09:10:27.159Z,2.80
2017-12-19T09:12:55.480Z,2.70
2017-12-19T09:15:23.757Z,2.60
2017-12-19T09:17:52.148Z,2.60
2017-12-19T09:20:20.408Z,2.60
2017-12-19T09:22:48.697Z,2.70
2017-12-19T09:25:17.076Z,2.70
2017-12-19T09:27:45.323Z,2.80
2017-12-19T09:30:13.618Z,2.70
2017-12-19T09:32:41.877Z,2.60
2017-12-19T09:35:10.144Z,2.60
2017-12-19T09:37:38.427Z,2.60
2017-12-19T09:40:06.699Z,2.60
2017-12-19T09:42:35.197Z,2.50
2017-12-19T09:45:03.478Z,2.60
2017-12-19T09:47:31.738Z,2.60
2017-12-19T09:50:00.155Z,2.60
2017-12-19T09:52:28.446Z,2.70
2017-12-19T09:54:57.500Z,2.80
2017-12-19T09:57:25.785Z,2.80
2017-12-19T09:59:54.075Z,2.90
2017-12-19T10:02:22.458Z,3.00
2017-12-19T10:04:50.716Z,3.10
2017-12-19T10:07:18.995Z,3.20
2017-12-19T10:09:47.267Z,3.30
2017-12-19T10:12:15.597Z,3.20
2017-12-19T10:14:43.953Z,3.30
2017-12-19T10:17:12.207Z,3.20
2017-12-19T10:19:40.605Z,3.20
2017-12-19T10:22:08.856Z,3.20
2017-12-19T10:24:37.126Z,3.10
2017-12-19T10:27:05.412Z,3.10
2017-12-19T10:29:33.688Z,3.10
2017-12-19T10:32:01.993Z,3.10
2017-12-19T10:34:30.248Z,3.10
2017-12-19T10:36:58.544Z,3.50
2017-12-19T10:39:26.833Z,3.50
2017-12-19T10:41:55.239Z,3.60
2017-12-19T10:44:24.294Z,3.40
2017-12-19T10:46:52.669Z,3.30
2017-12-19T10:49:21.064Z,3.30
2017-12-19T10:51:49.536Z,3.40
2017-12-19T10:54:17.802Z,3.40
2017-12-19T10:56:46.190Z,3.40
2017-12-19T10:59:14.570Z,3.40
2017-12-19T11:01:42.843Z,3.50
2017-12-19T11:04:11.114Z,3.60
2017-12-19T11:06:39.387Z,3.70
2017-12-19T11:09:07.666Z,3.80
2017-12-19T11:11:35.956Z,3.80
2017-12-19T11:14:04.200Z,3.80
2017-12-19T11:16:32.535Z,3.80
2017-12-19T11:19:01.565Z,3.60
2017-12-19T11:21:29.885Z,3.60
2017-12-19T11:23:58.265Z,3.60
2017-12-19T11:26:26.511Z,3.60
2017-12-19T11:28:54.796Z,3.60
2017-12-19T11:31:23.069Z,3.60
2017-12-19T11:33:51.475Z,3.60
2017-12-19T11:36:19.854Z,3.70
2017-12-19T11:38:48.137Z,3.70
2017-12-19T11:41:16.412Z,3.60
2017-12-19T11:43:44.688Z,3.50
2017-12-19T11:46:13.064Z,3.50
2017-12-19T11:48:41.340Z,3.40
2017-12-19T11:51:09.618Z,3.40
2017-12-19T11:53:37.899Z,3.40
2017-12-19T11:56:06.170Z,3.50
2017-12-19T11:58:34.449Z,3.50
2017-12-19T12:01:02.710Z,3.40
2017-12-19T12:03:31.001Z,3.40
2017-12-19T12:05:59.287Z,3.40
2017-12-19T12:08:29.090Z,3.30
2017-12-19T12:10:57.382Z,3.30
2017-12-19T12:13:25.641Z,3.30
2017-12-19T12:15:53.925Z,3.30
2017-12-19T12:18:22.204Z,3.30
2017-12-19T12:20:50.504Z,3.30
2017-12-19T12:23:18.788Z,3.40
2017-12-19T12:25:47.828Z,3.40
2017-12-19T12:28:16.087Z,3.40
2017-12-19T12:30:44.404Z,3.40
2017-12-19T12:33:12.682Z,3.40
2017-12-19T12:35:40.972Z,3.40
2017-12-19T12:38:09.232Z,3.40
2017-12-19T12:40:37.490Z,3.50
2017-12-19T12:43:05.760Z,3.50
2017-12-19T12:45:34.031Z,3.60
2017-12-19T12:48:02.344Z,3.60
2017-12-19T12:50:30.603Z,3.60
2017-12-19T12:52:58.858Z,3.50
2017-12-19T12:55:27.179Z,3.60
2017-12-19T12:57:56.068Z,3.70
2017-12-19T13:00:24.521Z,3.70
2017-12-19T13:02:52.784Z,3.70
2017-12-19T13:05:21.036Z,3.80
2017-12-19T13:07:50.077Z,3.80
2017-12-19T13:10:18.371Z,3.80
2017-12-19T13:12:46.653Z,3.80
2017-12-19T13:15:14.907Z,3.70
2017-12-19T13:17:43.172Z,3.60
2017-12-19T13:20:11.438Z,3.60
2017-12-19T13:22:39.727Z,3.60
2017-12-19T13:25:08.854Z,3.60
2017-12-19T13:27:37.118Z,3.50
2017-12-19T13:30:05.402Z,3.40
2017-12-19T13:32:33.701Z,3.50
2017-12-19T13:35:01.964Z,3.60
2017-12-19T13:37:30.335Z,3.50
2017-12-19T13:39:58.602Z,3.60
2017-12-19T13:42:26.864Z,3.60
2017-12-19T13:44:55.150Z,3.50
2017-12-19T13:47:23.416Z,3.50
2017-12-19T13:49:51.716Z,3.40
2017-12-19T13:52:20.003Z,3.40
2017-12-19T13:54:48.255Z,3.40
2017-12-19T13:57:16.529Z,3.50
2017-12-19T13:59:44.792Z,3.50
2017-12-19T14:02:13.112Z,3.60
2017-12-19T14:04:41.909Z,3.60
2017-12-19T14:07:10.164Z,3.60
2017-12-19T14:09:38.446Z,3.70
2017-12-19T14:12:06.730Z,3.70
2017-12-19T14:14:34.996Z,3.70
2017-12-19T14:17:03.275Z,3.60
2017-12-19T14:19:31.526Z,3.70
2017-12-19T14:21:59.812Z,3.70
2017-12-19T14:24:28.072Z,3.60
2017-12-19T14:26:56.351Z,3.70
2017-12-19T14:29:24.608Z,3.60
2017-12-19T14:31:53.656Z,3.60
2017-12-19T14:34:21.938Z,3.60
2017-12-19T14:36:50.226Z,3.60
2017-12-19T14:39:18.572Z,3.60
2017-12-19T14:41:46.839Z,3.70
2017-12-19T14:44:15.116Z,3.60
2017-12-19T14:46:43.376Z,3.60
2017-12-19T14:49:11.670Z,3.60
2017-12-19T14:51:39.933Z,3.60
2017-12-19T14:54:08.187Z,3.70
2017-12-19T14:56:38.053Z,3.80
2017-12-19T14:59:06.309Z,3.70
2017-12-19T15:01:34.589Z,3.90
2017-12-19T15:04:02.904Z,3.90
2017-12-19T15:06:31.156Z,3.90
2017-12-19T15:08:59.437Z,3.90
2017-12-19T15:11:27.696Z,4.00
2017-12-19T15:13:56.017Z,4.00
2017-12-19T15:16:24.282Z,4.00
2017-12-19T15:18:52.532Z,4.10
2017-12-19T15:21:20.811Z,4.10
2017-12-19T15:23:49.116Z,4.20
2017-12-19T15:26:17.396Z,4.20
2017-12-19T15:28:45.672Z,4.20
2017-12-19T15:31:14.058Z,4.20
2017-12-19T15:33:42.320Z,4.20
2017-12-19T15:36:10.598Z,4.10
2017-12-19T15:38:38.820Z,4.10
2017-12-19T15:41:07.877Z,4.10
2017-12-19T15:43:36.136Z,4.10
2017-12-19T15:46:04.411Z,4.00
2017-12-19T15:48:32.713Z,3.90
2017-12-19T15:51:00.963Z,4.00
2017-12-19T15:53:29.232Z,3.90
2017-12-19T15:55:57.503Z,4.00
2017-12-19T15:58:25.790Z,4.10
2017-12-19T16:00:54.199Z,4.10
2017-12-19T16:03:22.474Z,4.10
2017-12-19T16:05:50.740Z,4.20
2017-12-19T16:08:18.996Z,4.20
2017-12-19T16:10:47.276Z,4.20
2017-12-19T16:13:15.544Z,4.20
2017-12-19T16:15:43.800Z,4.20
2017-12-19T16:18:12.849Z,4.20
2017-12-19T16:20:41.131Z,4.10
2017-12-19T16:23:09.531Z,4.20
2017-12-19T16:25:38.552Z,4.40
2017-12-19T16:28:07.568Z,4.40
2017-12-19T16:30:35.845Z,4.40
2017-12-19T16:33:04.105Z,4.50
2017-12-19T16:35:32.425Z,4.40
2017-12-19T16:38:00.677Z,4.50
2017-12-19T16:40:28.944Z,4.60
2017-12-19T16:42:57.248Z,4.60
2017-12-19T16:45:25.483Z,4.50
2017-12-19T16:47:54.738Z,4.30
2017-12-19T16:50:23.020Z,4.30
2017-12-19T16:52:51.305Z,4.30
2017-12-19T16:55:19.579Z,4.30
2017-12-19T16:57:47.864Z,4.20
2017-12-19T17:00:16.250Z,4.20
2017-12-19T17:02:44.496Z,4.30
2017-12-19T17:05:12.872Z,4.30
2017-12-19T17:07:41.145Z,4.20
2017-12-19T17:10:09.404Z,4.20
2017-12-19T17:12:37.704Z,4.20
2017-12-19T17:15:06.123Z,4.40
2017-12-19T17:17:35.158Z,4.50
2017-12-19T17:20:03.876Z,4.50
2017-12-19T17:22:32.136Z,4.60
2017-12-19T17:25:00.413Z,4.50
2017-12-19T17:27:28.669Z,4.60
2017-12-19T17:29:56.974Z,4.70
2017-12-19T17:32:25.243Z,4.70
2017-12-19T17:34:53.544Z,4.70
2017-12-19T17:37:23.345Z,4.60
2017-12-19T17:39:51.609Z,4.60
2017-12-19T17:42:19.903Z,4.60
2017-12-19T17:44:48.178Z,4.70
2017-12-19T17:47:16.440Z,4.70
2017-12-19T17:49:45.041Z,4.50
2017-12-19T17:52:13.288Z,4.40
2017-12-19T17:54:41.545Z,4.40
2017-12-19T17:57:09.824Z,4.30
2017-12-19T17:59:38.099Z,4.30
2017-12-19T18:02:07.144Z,4.40
2017-12-19T18:04:35.396Z,4.40
2017-12-19T18:07:03.711Z,4.40
2017-12-19T18:09:32.771Z,4.40
2017-12-19T18:12:01.021Z,4.40
2017-12-19T18:14:29.308Z,4.50
2017-12-19T18:16:57.576Z,4.50
2017-12-19T18:19:26.597Z,4.60
2017-12-19T18:21:54.877Z,4.60
2017-12-19T18:24:23.133Z,4.60
2017-12-19T18:26:51.449Z,4.60
2017-12-19T18:29:19.712Z,4.60
2017-12-19T18:31:47.989Z,4.60
2017-12-19T18:34:16.256Z,4.70
2017-12-19T18:36:44.561Z,4.50
2017-12-19T18:39:12.836Z,4.40
2017-12-19T18:41:41.113Z,4.30
2017-12-19T18:44:09.389Z,4.30
2017-12-19T18:46:37.653Z,4.40
2017-12-19T18:49:05.912Z,4.50
2017-12-19T18:51:34.196Z,4.60
2017-12-19T18:54:02.455Z,4.60
2017-12-19T18:56:30.772Z,4.50
2017-12-19T18:58:59.024Z,4.30
2017-12-19T19:01:27.346Z,4.40
2017-12-19T19:03:55.584Z,4.40
2017-12-19T19:06:23.891Z,4.50
2017-12-19T19:08:52.171Z,4.60
2017-12-19T19:11:20.436Z,4.60
2017-12-19T19:13:48.721Z,4.60
2017-12-19T19:16:17.088Z,4.60
2017-12-19T19:18:45.361Z,4.60
2017-12-19T19:21:13.620Z,4.60
2017-12-19T19:23:41.896Z,4.60
2017-12-19T19:26:10.159Z,4.50
2017-12-19T19:28:38.485Z,4.50
2017-12-19T19:31:06.751Z,4.50
2017-12-19T19:33:35.037Z,4.50
2017-12-19T19:36:03.295Z,4.50
2017-12-19T19:38:31.547Z,4.60
2017-12-19T19:40:59.839Z,4.50
2017-12-19T19:43:28.096Z,4.50
2017-12-19T19:45:56.364Z,4.50
2017-12-19T19:48:24.616Z,4.40
2017-12-19T19:50:52.898Z,4.40
2017-12-19T19:53:22.043Z,4.30
2017-12-19T19:55:50.319Z,4.30
2017-12-19T19:58:18.621Z,4.30
2017-12-19T20:00:46.974Z,4.40
2017-12-19T20:03:15.228Z,4.40
2017-12-19T20:05:43.519Z,4.30
2017-12-19T20:08:11.931Z,4.40
2017-12-19T20:10:40.224Z,4.50
2017-12-19T20:13:09.376Z,4.40
2017-12-19T20:15:37.664Z,4.40
2017-12-19T20:18:05.926Z,4.40
2017-12-19T20:20:34.249Z,4.40
2017-12-19T20:23:02.522Z,4.50
2017-12-19T20:25:30.809Z,4.50
2017-12-19T20:27:59.173Z,4.50
2017-12-19T20:30:27.432Z,4.50
2017-12-19T20:32:55.822Z,4.60
2017-12-19T20:35:24.059Z,4.70
2017-12-19T20:37:52.340Z,4.80
2017-12-19T20:40:20.661Z,4.80
2017-12-19T20:42:48.938Z,4.80
2017-12-19T20:45:18.029Z,4.90
2017-12-19T20:47:46.420Z,4.90
2017-12-19T20:50:14.685Z,4.90
2017-12-19T20:52:43.077Z,5.00
2017-12-19T20:55:11.373Z,5.00
2017-12-19T20:57:39.728Z,5.00
2017-12-19T21:00:07.996Z,5.00
2017-12-19T21:02:36.247Z,5.00
2017-12-19T21:05:05.208Z,5.00
2017-12-19T21:07:34.272Z,5.00
2017-12-19T21:10:02.540Z,5.00
2017-12-19T21:12:30.793Z,5.00
2017-12-19T21:14:59.081Z,5.00
2017-12-19T21:17:27.343Z,5.00
2017-12-19T21:19:55.623Z,5.00
2017-12-19T21:22:23.885Z,4.90
2017-12-19T21:24:52.236Z,5.00
2017-12-19T21:27:20.493Z,5.00
2017-12-19T21:29:48.852Z,5.00
2017-12-19T21:32:17.194Z,5.00
2017-12-19T21:34:47.047Z,5.00
2017-12-19T21:37:15.361Z,5.00
2017-12-19T21:39:44.430Z,5.10
2017-12-19T21:42:12.680Z,5.10
2017-12-19T21:44:40.945Z,5.10
2017-12-19T21:47:09.363Z,5.10
2017-12-19T21:49:37.622Z,5.10
2017-12-19T21:52:05.900Z,5.10
2017-12-19T21:54:34.162Z,4.90
2017-12-19T21:57:02.476Z,4.90
2017-12-19T21:59:30.723Z,4.80
2017-12-19T22:01:59.005Z,4.70
2017-12-19T22:04:27.326Z,4.60
2017-12-19T22:06:55.560Z,4.60
2017-12-19T22:09:23.828Z,4.60
2017-12-19T22:11:52.105Z,4.60
2017-12-19T22:14:20.401Z,4.70
2017-12-19T22:16:48.790Z,4.70
2017-12-19T22:19:17.171Z,4.70
2017-12-19T22:21:45.479Z,4.70
2017-12-19T22:24:15.259Z,4.80
2017-12-19T22:26:44.532Z,4.80
2017-12-19T22:29:12.947Z,4.80
2017-12-19T22:31:41.222Z,4.80
2017-12-19T22:34:09.591Z,4.70
2017-12-19T22:36:37.851Z,4.80
2017-12-19T22:39:06.132Z,4.80
2017-12-19T22:41:34.391Z,4.80
2017-12-19T22:44:02.679Z,5.00
2017-12-19T22:46:30.985Z,5.00
2017-12-19T22:48:59.360Z,5.00
2017-12-19T22:51:27.612Z,5.10
2017-12-19T22:53:55.892Z,5.20
2017-12-19T22:56:24.162Z,5.40
2017-12-19T22:58:52.430Z,5.50
2017-12-19T23:01:20.768Z,5.50
2017-12-19T23:03:49.812Z,5.60
2017-12-19T23:06:18.092Z,5.60
2017-12-19T23:08:46.339Z,5.60
2017-12-19T23:11:14.620Z,5.60
2017-12-19T23:13:42.933Z,5.80
2017-12-19T23:16:11.201Z,5.90
2017-12-19T23:18:39.451Z,5.90
2017-12-19T23:21:07.727Z,6.00
2017-12-19T23:23:35.985Z,6.20
2017-12-19T23:26:05.051Z,6.30
2017-12-19T23:28:33.841Z,6.30
2017-12-19T23:31:02.124Z,6.30
2017-12-19T23:33:31.120Z,6.20
2017-12-19T23:35:59.399Z,6.20
2017-12-19T23:38:27.650Z,6.10
2017-12-19T23:40:56.041Z,6.00
2017-12-19T23:43:24.322Z,6.10
2017-12-19T23:45:52.571Z,6.20
2017-12-19T23:48:20.844Z,6.20
2017-12-19T23:50:49.256Z,6.30
2017-12-19T23:53:17.796Z,6.30
2017-12-19T23:55:46.048Z,6.30
2017-12-19T23:58:15.091Z,6.20
